sensor_id;sensor_type;location;lat;lon;timestamp;temperature;humidity
6210;DHT22;3138;52.550;13.148;2024-02-28T00:01:05;3.50;99.90
6210;DHT22;3138;52.550;13.148;2024-02-28T00:03:32;3.50;99.90
6210;DHT22;3138;52.550;13.148;2024-02-28T00:05:59;3.50;99.90
6210;DHT22;3138;52.550;13.148;2024-02-28T00:08:26;3.50;99.90
6210;DHT22;3138;52.550;13.148;2024-02-28T00:10:52;3.50;99.90
6210;DHT22;3138;52.550;13.148;2024-02-28T00:13:21;3.50;99.90
6210;DHT22;3138;52.550;13.148;2024-02-28T00:15:48;3.50;99.90
6210;DHT22;3138;52.550;13.148;2024-02-28T00:18:16;3.50;99.90
6210;DHT22;3138;52.550;13.148;2024-02-28T00:20:44;3.50;99.90
6210;DHT22;3138;52.550;13.148;2024-02-28T00:23:12;3.50;99.90
6210;DHT22;3138;52.550;13.148;2024-02-28T00:25:39;3.50;99.90
6210;DHT22;3138;52.550;13.148;2024-02-28T00:28:05;3.50;99.90
6210;DHT22;3138;52.550;13.148;2024-02-28T00:30:34;3.50;99.90
6210;DHT22;3138;52.550;13.148;2024-02-28T00:33:00;3.50;99.90
6210;DHT22;3138;52.550;13.148;2024-02-28T00:35:30;3.50;99.90
6210;DHT22;3138;52.550;13.148;2024-02-28T00:37:58;3.50;99.90
6210;DHT22;3138;52.550;13.148;2024-02-28T00:40:25;3.50;99.90
6210;DHT22;3138;52.550;13.148;2024-02-28T00:42:52;3.50;99.90
6210;DHT22;3138;52.550;13.148;2024-02-28T00:45:18;3.50;99.90
6210;DHT22;3138;52.550;13.148;2024-02-28T00:47:48;3.50;99.90
6210;DHT22;3138;52.550;13.148;2024-02-28T00:50:15;3.50;99.90
6210;DHT22;3138;52.550;13.148;2024-02-28T00:52:42;3.50;99.90
6210;DHT22;3138;52.550;13.148;2024-02-28T00:55:08;3.40;99.90
6210;DHT22;3138;52.550;13.148;2024-02-28T00:57:35;3.40;99.90
6210;DHT22;3138;52.550;13.148;2024-02-28T01:00:02;3.40;99.90
6210;DHT22;3138;52.550;13.148;2024-02-28T01:02:31;3.50;99.90
6210;DHT22;3138;52.550;13.148;2024-02-28T01:04:59;3.50;99.90
6210;DHT22;3138;52.550;13.148;2024-02-28T01:07:26;3.50;99.90
6210;DHT22;3138;52.550;13.148;2024-02-28T01:09:54;3.50;99.90
6210;DHT22;3138;52.550;13.148;2024-02-28T01:12:20;3.50;99.90
6210;DHT22;3138;52.550;13.148;2024-02-28T01:14:47;3.50;99.90
6210;DHT22;3138;52.550;13.148;2024-02-28T01:17:14;3.50;99.90
6210;DHT22;3138;52.550;13.148;2024-02-28T01:19:41;3.50;99.90
6210;DHT22;3138;52.550;13.148;2024-02-28T01:22:09;3.50;99.90
6210;DHT22;3138;52.550;13.148;2024-02-28T01:24:36;3.50;99.90
6210;DHT22;3138;52.550;13.148;2024-02-28T01:27:03;3.50;99.90
6210;DHT22;3138;52.550;13.148;2024-02-28T01:29:30;3.60;99.90
6210;DHT22;3138;52.550;13.148;2024-02-28T01:31:56;3.60;99.90
6210;DHT22;3138;52.550;13.148;2024-02-28T01:34:23;3.60;99.90
6210;DHT22;3138;52.550;13.148;2024-02-28T01:36:50;3.60;99.90
6210;DHT22;3138;52.550;13.148;2024-02-28T01:39:18;3.60;99.90
6210;DHT22;3138;52.550;13.148;2024-02-28T01:41:51;3.60;99.90
6210;DHT22;3138;52.550;13.148;2024-02-28T01:44:19;3.60;99.90
6210;DHT22;3138;52.550;13.148;2024-02-28T01:46:46;3.60;99.90
6210;DHT22;3138;52.550;13.148;2024-02-28T01:49:13;3.60;99.90
6210;DHT22;3138;52.550;13.148;2024-02-28T01:51:41;3.60;99.90
6210;DHT22;3138;52.550;13.148;2024-02-28T01:54:08;3.60;99.90
6210;DHT22;3138;52.550;13.148;2024-02-28T01:56:37;3.60;99.90
6210;DHT22;3138;52.550;13.148;2024-02-28T01:59:04;3.60;99.90
6210;DHT22;3138;52.550;13.148;2024-02-28T02:01:32;3.60;99.90
6210;DHT22;3138;52.550;13.148;2024-02-28T02:03:59;3.60;99.90
6210;DHT22;3138;52.550;13.148;2024-02-28T02:06:26;3.60;99.90
6210;DHT22;3138;52.550;13.148;2024-02-28T02:08:52;3.60;99.90
6210;DHT22;3138;52.550;13.148;2024-02-28T02:11:20;3.60;99.90
6210;DHT22;3138;52.550;13.148;2024-02-28T02:13:49;3.60;99.90
6210;DHT22;3138;52.550;13.148;2024-02-28T02:16:16;3.60;99.90
6210;DHT22;3138;52.550;13.148;2024-02-28T02:18:43;3.70;99.90
6210;DHT22;3138;52.550;13.148;2024-02-28T02:21:11;3.50;99.90
6210;DHT22;3138;52.550;13.148;2024-02-28T02:23:40;3.50;99.90
6210;DHT22;3138;52.550;13.148;2024-02-28T02:26:07;3.50;99.90
6210;DHT22;3138;52.550;13.148;2024-02-28T02:28:34;3.50;99.90
6210;DHT22;3138;52.550;13.148;2024-02-28T02:31:01;3.50;99.90
6210;DHT22;3138;52.550;13.148;2024-02-28T02:33:28;3.50;99.90
6210;DHT22;3138;52.550;13.148;2024-02-28T02:35:55;3.50;99.90
6210;DHT22;3138;52.550;13.148;2024-02-28T02:38:22;3.50;99.90
6210;DHT22;3138;52.550;13.148;2024-02-28T02:40:50;3.50;99.90
6210;DHT22;3138;52.550;13.148;2024-02-28T02:43:17;3.50;99.90
6210;DHT22;3138;52.550;13.148;2024-02-28T02:45:44;3.50;99.90
6210;DHT22;3138;52.550;13.148;2024-02-28T02:48:11;3.50;99.90
6210;DHT22;3138;52.550;13.148;2024-02-28T02:50:38;3.60;99.90
6210;DHT22;3138;52.550;13.148;2024-02-28T02:53:07;3.60;99.90
6210;DHT22;3138;52.550;13.148;2024-02-28T02:55:34;3.60;99.90
6210;DHT22;3138;52.550;13.148;2024-02-28T02:58:02;3.60;99.90
6210;DHT22;3138;52.550;13.148;2024-02-28T03:00:29;3.60;99.90
6210;DHT22;3138;52.550;13.148;2024-02-28T03:02:56;3.60;99.90
6210;DHT22;3138;52.550;13.148;2024-02-28T03:05:23;3.60;99.90
6210;DHT22;3138;52.550;13.148;2024-02-28T03:07:50;3.60;99.90
6210;DHT22;3138;52.550;13.148;2024-02-28T03:10:17;3.60;99.90
6210;DHT22;3138;52.550;13.148;2024-02-28T03:12:43;3.60;99.90
6210;DHT22;3138;52.550;13.148;2024-02-28T03:15:11;3.60;99.90
6210;DHT22;3138;52.550;13.148;2024-02-28T03:17:38;3.60;99.90
6210;DHT22;3138;52.550;13.148;2024-02-28T03:20:06;3.50;99.90
6210;DHT22;3138;52.550;13.148;2024-02-28T03:22:33;3.50;99.90
6210;DHT22;3138;52.550;13.148;2024-02-28T03:25:00;3.50;99.90
6210;DHT22;3138;52.550;13.148;2024-02-28T03:27:27;3.50;99.90
6210;DHT22;3138;52.550;13.148;2024-02-28T03:29:54;3.50;99.90
6210;DHT22;3138;52.550;13.148;2024-02-28T03:32:22;3.50;99.90
6210;DHT22;3138;52.550;13.148;2024-02-28T03:34:48;3.50;99.90
6210;DHT22;3138;52.550;13.148;2024-02-28T03:37:15;3.50;99.90
6210;DHT22;3138;52.550;13.148;2024-02-28T03:39:42;3.50;99.90
6210;DHT22;3138;52.550;13.148;2024-02-28T03:42:09;3.50;99.90
6210;DHT22;3138;52.550;13.148;2024-02-28T03:44:36;3.50;99.90
6210;DHT22;3138;52.550;13.148;2024-02-28T03:47:03;3.40;99.90
6210;DHT22;3138;52.550;13.148;2024-02-28T03:49:31;3.40;99.90
6210;DHT22;3138;52.550;13.148;2024-02-28T03:51:58;3.40;99.90
6210;DHT22;3138;52.550;13.148;2024-02-28T03:54:26;3.40;99.90
6210;DHT22;3138;52.550;13.148;2024-02-28T03:56:52;3.40;99.90
6210;DHT22;3138;52.550;13.148;2024-02-28T03:59:19;3.40;99.90
6210;DHT22;3138;52.550;13.148;2024-02-28T04:01:46;3.40;99.90
6210;DHT22;3138;52.550;13.148;2024-02-28T04:04:13;3.40;99.90
6210;DHT22;3138;52.550;13.148;2024-02-28T04:06:41;3.40;99.90
6210;DHT22;3138;52.550;13.148;2024-02-28T04:09:08;3.50;99.90
6210;DHT22;3138;52.550;13.148;2024-02-28T04:11:37;3.40;99.90
6210;DHT22;3138;52.550;13.148;2024-02-28T04:14:03;3.40;99.90
6210;DHT22;3138;52.550;13.148;2024-02-28T04:16:30;3.40;99.90
6210;DHT22;3138;52.550;13.148;2024-02-28T04:18:57;3.40;99.90
6210;DHT22;3138;52.550;13.148;2024-02-28T04:21:24;3.40;99.90
6210;DHT22;3138;52.550;13.148;2024-02-28T04:23:52;3.40;99.90
6210;DHT22;3138;52.550;13.148;2024-02-28T04:26:19;3.40;99.90
6210;DHT22;3138;52.550;13.148;2024-02-28T04:28:46;3.40;99.90
6210;DHT22;3138;52.550;13.148;2024-02-28T04:31:12;3.40;99.90
6210;DHT22;3138;52.550;13.148;2024-02-28T04:33:39;3.40;99.90
6210;DHT22;3138;52.550;13.148;2024-02-28T04:36:06;3.40;99.90
6210;DHT22;3138;52.550;13.148;2024-02-28T04:38:33;3.40;99.90
6210;DHT22;3138;52.550;13.148;2024-02-28T04:41:01;3.30;99.90
6210;DHT22;3138;52.550;13.148;2024-02-28T04:43:28;3.30;99.90
6210;DHT22;3138;52.550;13.148;2024-02-28T04:45:55;3.30;99.90
6210;DHT22;3138;52.550;13.148;2024-02-28T04:48:22;3.30;99.90
6210;DHT22;3138;52.550;13.148;2024-02-28T04:50:49;3.20;99.90
6210;DHT22;3138;52.550;13.148;2024-02-28T04:53:16;3.30;99.90
6210;DHT22;3138;52.550;13.148;2024-02-28T04:55:42;3.20;99.90
6210;DHT22;3138;52.550;13.148;2024-02-28T04:58:11;3.30;99.90
6210;DHT22;3138;52.550;13.148;2024-02-28T05:00:37;3.30;99.90
6210;DHT22;3138;52.550;13.148;2024-02-28T05:03:04;3.30;99.90
6210;DHT22;3138;52.550;13.148;2024-02-28T05:05:31;3.30;99.90
6210;DHT22;3138;52.550;13.148;2024-02-28T05:07:58;3.40;99.90
6210;DHT22;3138;52.550;13.148;2024-02-28T05:10:25;3.40;99.90
6210;DHT22;3138;52.550;13.148;2024-02-28T05:12:52;3.40;99.90
6210;DHT22;3138;52.550;13.148;2024-02-28T05:15:20;3.40;99.90
6210;DHT22;3138;52.550;13.148;2024-02-28T05:17:47;3.50;99.90
6210;DHT22;3138;52.550;13.148;2024-02-28T05:20:16;3.40;99.90
6210;DHT22;3138;52.550;13.148;2024-02-28T05:22:43;3.30;99.90
6210;DHT22;3138;52.550;13.148;2024-02-28T05:25:10;3.40;99.90
6210;DHT22;3138;52.550;13.148;2024-02-28T05:27:36;3.40;99.90
6210;DHT22;3138;52.550;13.148;2024-02-28T05:30:04;3.40;99.90
6210;DHT22;3138;52.550;13.148;2024-02-28T05:32:32;3.40;99.90
6210;DHT22;3138;52.550;13.148;2024-02-28T05:34:59;3.40;99.90
6210;DHT22;3138;52.550;13.148;2024-02-28T05:37:26;3.40;99.90
6210;DHT22;3138;52.550;13.148;2024-02-28T05:39:53;3.50;99.90
6210;DHT22;3138;52.550;13.148;2024-02-28T05:42:20;3.40;99.90
6210;DHT22;3138;52.550;13.148;2024-02-28T05:44:48;3.40;99.90
6210;DHT22;3138;52.550;13.148;2024-02-28T05:47:15;3.40;99.90
6210;DHT22;3138;52.550;13.148;2024-02-28T05:49:43;3.40;99.90
6210;DHT22;3138;52.550;13.148;2024-02-28T05:52:10;3.40;99.90
6210;DHT22;3138;52.550;13.148;2024-02-28T05:54:37;3.40;99.90
6210;DHT22;3138;52.550;13.148;2024-02-28T05:57:04;3.40;99.90
6210;DHT22;3138;52.550;13.148;2024-02-28T05:59:31;3.40;99.90
6210;DHT22;3138;52.550;13.148;2024-02-28T06:01:57;3.30;99.90
6210;DHT22;3138;52.550;13.148;2024-02-28T06:04:24;3.30;99.90
6210;DHT22;3138;52.550;13.148;2024-02-28T06:06:52;3.30;99.90
6210;DHT22;3138;52.550;13.148;2024-02-28T06:09:19;3.30;99.90
6210;DHT22;3138;52.550;13.148;2024-02-28T06:11:46;3.30;99.90
6210;DHT22;3138;52.550;13.148;2024-02-28T06:14:13;3.30;99.90
6210;DHT22;3138;52.550;13.148;2024-02-28T06:16:40;3.20;99.90
6210;DHT22;3138;52.550;13.148;2024-02-28T06:19:06;3.20;99.90
6210;DHT22;3138;52.550;13.148;2024-02-28T06:21:33;3.20;99.90
6210;DHT22;3138;52.550;13.148;2024-02-28T06:24:01;3.20;99.90
6210;DHT22;3138;52.550;13.148;2024-02-28T06:26:29;3.20;99.90
6210;DHT22;3138;52.550;13.148;2024-02-28T06:28:56;3.10;99.90
6210;DHT22;3138;52.550;13.148;2024-02-28T06:31:27;3.10;99.90
6210;DHT22;3138;52.550;13.148;2024-02-28T06:33:55;3.00;99.90
6210;DHT22;3138;52.550;13.148;2024-02-28T06:36:22;3.10;99.90
6210;DHT22;3138;52.550;13.148;2024-02-28T06:38:48;3.00;99.90
6210;DHT22;3138;52.550;13.148;2024-02-28T06:41:17;3.00;99.90
6210;DHT22;3138;52.550;13.148;2024-02-28T06:43:44;2.90;99.90
6210;DHT22;3138;52.550;13.148;2024-02-28T06:46:11;2.90;99.90
6210;DHT22;3138;52.550;13.148;2024-02-28T06:48:38;2.90;99.90
6210;DHT22;3138;52.550;13.148;2024-02-28T06:51:05;2.90;99.90
6210;DHT22;3138;52.550;13.148;2024-02-28T06:53:31;2.80;99.90
6210;DHT22;3138;52.550;13.148;2024-02-28T06:55:58;2.70;99.90
6210;DHT22;3138;52.550;13.148;2024-02-28T06:58:26;2.60;99.90
6210;DHT22;3138;52.550;13.148;2024-02-28T07:00:53;2.50;99.90
6210;DHT22;3138;52.550;13.148;2024-02-28T07:03:20;2.60;99.90
6210;DHT22;3138;52.550;13.148;2024-02-28T07:05:47;2.50;99.90
6210;DHT22;3138;52.550;13.148;2024-02-28T07:08:14;2.60;99.90
6210;DHT22;3138;52.550;13.148;2024-02-28T07:10:40;2.70;99.90
6210;DHT22;3138;52.550;13.148;2024-02-28T07:13:09;2.80;99.90
6210;DHT22;3138;52.550;13.148;2024-02-28T07:15:37;2.80;99.90
6210;DHT22;3138;52.550;13.148;2024-02-28T07:18:05;2.70;99.90
6210;DHT22;3138;52.550;13.148;2024-02-28T07:20:32;2.90;99.90
6210;DHT22;3138;52.550;13.148;2024-02-28T07:22:59;2.80;99.90
6210;DHT22;3138;52.550;13.148;2024-02-28T07:25:26;2.80;99.90
6210;DHT22;3138;52.550;13.148;2024-02-28T07:27:53;2.80;99.90
6210;DHT22;3138;52.550;13.148;2024-02-28T07:30:20;2.80;99.90
6210;DHT22;3138;52.550;13.148;2024-02-28T07:32:48;2.80;99.90
6210;DHT22;3138;52.550;13.148;2024-02-28T07:35:15;2.90;99.90
6210;DHT22;3138;52.550;13.148;2024-02-28T07:37:41;2.90;99.90
6210;DHT22;3138;52.550;13.148;2024-02-28T07:40:09;2.90;99.90
6210;DHT22;3138;52.550;13.148;2024-02-28T07:42:36;2.90;99.90
6210;DHT22;3138;52.550;13.148;2024-02-28T07:45:03;2.90;99.90
6210;DHT22;3138;52.550;13.148;2024-02-28T07:47:30;3.00;99.90
6210;DHT22;3138;52.550;13.148;2024-02-28T07:49:59;3.00;99.90
6210;DHT22;3138;52.550;13.148;2024-02-28T07:52:25;3.00;99.90
6210;DHT22;3138;52.550;13.148;2024-02-28T07:54:52;3.00;99.90
6210;DHT22;3138;52.550;13.148;2024-02-28T07:57:19;2.90;99.90
6210;DHT22;3138;52.550;13.148;2024-02-28T07:59:46;2.90;99.90
6210;DHT22;3138;52.550;13.148;2024-02-28T08:02:13;3.00;99.90
6210;DHT22;3138;52.550;13.148;2024-02-28T08:04:40;2.90;99.90
6210;DHT22;3138;52.550;13.148;2024-02-28T08:07:08;2.90;99.90
6210;DHT22;3138;52.550;13.148;2024-02-28T08:09:35;3.00;99.90
6210;DHT22;3138;52.550;13.148;2024-02-28T08:12:02;3.00;99.90
6210;DHT22;3138;52.550;13.148;2024-02-28T08:14:29;3.00;99.90
6210;DHT22;3138;52.550;13.148;2024-02-28T08:16:56;2.90;99.90
6210;DHT22;3138;52.550;13.148;2024-02-28T08:19:22;3.00;99.90
6210;DHT22;3138;52.550;13.148;2024-02-28T08:21:49;3.00;99.90
6210;DHT22;3138;52.550;13.148;2024-02-28T08:24:17;3.00;99.90
6210;DHT22;3138;52.550;13.148;2024-02-28T08:26:44;3.00;99.90
6210;DHT22;3138;52.550;13.148;2024-02-28T08:29:11;3.10;99.90
6210;DHT22;3138;52.550;13.148;2024-02-28T08:31:41;2.90;99.90
6210;DHT22;3138;52.550;13.148;2024-02-28T08:34:08;3.00;99.90
6210;DHT22;3138;52.550;13.148;2024-02-28T08:36:35;2.90;99.90
6210;DHT22;3138;52.550;13.148;2024-02-28T08:39:02;3.00;99.90
6210;DHT22;3138;52.550;13.148;2024-02-28T08:41:32;3.00;99.90
6210;DHT22;3138;52.550;13.148;2024-02-28T08:43:59;3.00;99.90
6210;DHT22;3138;52.550;13.148;2024-02-28T08:46:26;3.10;99.90
6210;DHT22;3138;52.550;13.148;2024-02-28T08:48:53;3.00;99.90
6210;DHT22;3138;52.550;13.148;2024-02-28T08:51:20;3.20;99.90
6210;DHT22;3138;52.550;13.148;2024-02-28T08:53:47;3.30;99.90
6210;DHT22;3138;52.550;13.148;2024-02-28T08:56:14;3.20;99.90
6210;DHT22;3138;52.550;13.148;2024-02-28T08:58:42;3.10;99.90
6210;DHT22;3138;52.550;13.148;2024-02-28T09:01:13;3.20;99.90
6210;DHT22;3138;52.550;13.148;2024-02-28T09:03:40;3.20;99.90
6210;DHT22;3138;52.550;13.148;2024-02-28T09:06:07;3.20;99.90
6210;DHT22;3138;52.550;13.148;2024-02-28T09:08:34;3.30;99.90
6210;DHT22;3138;52.550;13.148;2024-02-28T09:11:01;3.30;99.90
6210;DHT22;3138;52.550;13.148;2024-02-28T09:13:28;3.20;99.90
6210;DHT22;3138;52.550;13.148;2024-02-28T09:15:57;3.30;99.90
6210;DHT22;3138;52.550;13.148;2024-02-28T09:18:23;3.40;99.90
6210;DHT22;3138;52.550;13.148;2024-02-28T09:20:50;3.30;99.90
6210;DHT22;3138;52.550;13.148;2024-02-28T09:23:17;3.20;99.90
6210;DHT22;3138;52.550;13.148;2024-02-28T09:25:44;3.20;99.90
6210;DHT22;3138;52.550;13.148;2024-02-28T09:28:11;3.10;99.90
6210;DHT22;3138;52.550;13.148;2024-02-28T09:30:39;3.20;99.90
6210;DHT22;3138;52.550;13.148;2024-02-28T09:33:07;3.20;99.90
6210;DHT22;3138;52.550;13.148;2024-02-28T09:35:34;3.20;99.90
6210;DHT22;3138;52.550;13.148;2024-02-28T09:38:01;3.30;99.90
6210;DHT22;3138;52.550;13.148;2024-02-28T09:40:30;3.20;99.90
6210;DHT22;3138;52.550;13.148;2024-02-28T09:43:01;3.30;99.90
6210;DHT22;3138;52.550;13.148;2024-02-28T09:45:29;3.30;99.90
6210;DHT22;3138;52.550;13.148;2024-02-28T09:47:58;3.40;99.90
6210;DHT22;3138;52.550;13.148;2024-02-28T09:50:27;3.40;99.90
6210;DHT22;3138;52.550;13.148;2024-02-28T09:52:54;3.50;99.90
6210;DHT22;3138;52.550;13.148;2024-02-28T09:55:21;3.60;99.90
6210;DHT22;3138;52.550;13.148;2024-02-28T09:57:49;3.40;99.90
6210;DHT22;3138;52.550;13.148;2024-02-28T10:00:19;3.40;99.90
6210;DHT22;3138;52.550;13.148;2024-02-28T10:02:47;3.40;99.90
6210;DHT22;3138;52.550;13.148;2024-02-28T10:05:15;3.50;99.90
6210;DHT22;3138;52.550;13.148;2024-02-28T10:07:45;3.60;99.90
6210;DHT22;3138;52.550;13.148;2024-02-28T10:10:12;3.60;99.90
6210;DHT22;3138;52.550;13.148;2024-02-28T10:12:41;3.60;99.90
6210;DHT22;3138;52.550;13.148;2024-02-28T10:15:10;3.50;99.90
6210;DHT22;3138;52.550;13.148;2024-02-28T10:17:37;3.50;99.90
6210;DHT22;3138;52.550;13.148;2024-02-28T10:20:05;3.60;99.90
6210;DHT22;3138;52.550;13.148;2024-02-28T10:22:35;3.60;99.90
6210;DHT22;3138;52.550;13.148;2024-02-28T10:25:04;3.60;99.90
6210;DHT22;3138;52.550;13.148;2024-02-28T10:27:34;3.60;99.90
6210;DHT22;3138;52.550;13.148;2024-02-28T10:30:01;3.60;99.90
6210;DHT22;3138;52.550;13.148;2024-02-28T10:32:30;3.50;99.90
6210;DHT22;3138;52.550;13.148;2024-02-28T10:34:58;3.60;99.90
6210;DHT22;3138;52.550;13.148;2024-02-28T10:37:27;3.70;99.90
6210;DHT22;3138;52.550;13.148;2024-02-28T10:39:56;3.70;99.90
6210;DHT22;3138;52.550;13.148;2024-02-28T10:42:25;3.80;99.90
6210;DHT22;3138;52.550;13.148;2024-02-28T10:44:52;3.80;99.90
6210;DHT22;3138;52.550;13.148;2024-02-28T10:47:21;3.70;99.90
6210;DHT22;3138;52.550;13.148;2024-02-28T10:49:48;3.70;99.90
6210;DHT22;3138;52.550;13.148;2024-02-28T10:52:15;3.60;99.90
6210;DHT22;3138;52.550;13.148;2024-02-28T10:54:46;3.70;99.90
6210;DHT22;3138;52.550;13.148;2024-02-28T10:57:15;3.80;99.90
6210;DHT22;3138;52.550;13.148;2024-02-28T10:59:46;3.80;99.90
6210;DHT22;3138;52.550;13.148;2024-02-28T11:02:13;3.70;99.90
6210;DHT22;3138;52.550;13.148;2024-02-28T11:04:41;3.60;99.90
6210;DHT22;3138;52.550;13.148;2024-02-28T11:07:08;3.60;99.90
6210;DHT22;3138;52.550;13.148;2024-02-28T11:09:35;3.60;99.90
6210;DHT22;3138;52.550;13.148;2024-02-28T11:12:04;3.50;99.90
6210;DHT22;3138;52.550;13.148;2024-02-28T11:14:31;3.60;99.90
6210;DHT22;3138;52.550;13.148;2024-02-28T11:17:03;3.60;99.90
6210;DHT22;3138;52.550;13.148;2024-02-28T11:19:31;3.70;99.90
6210;DHT22;3138;52.550;13.148;2024-02-28T11:21:59;4.00;99.90
6210;DHT22;3138;52.550;13.148;2024-02-28T11:24:30;4.10;99.90
6210;DHT22;3138;52.550;13.148;2024-02-28T11:26:57;4.20;99.90
6210;DHT22;3138;52.550;13.148;2024-02-28T11:29:25;4.20;99.90
6210;DHT22;3138;52.550;13.148;2024-02-28T11:31:52;4.10;99.90
6210;DHT22;3138;52.550;13.148;2024-02-28T11:34:21;4.10;99.90
6210;DHT22;3138;52.550;13.148;2024-02-28T11:36:48;4.30;99.90
6210;DHT22;3138;52.550;13.148;2024-02-28T11:39:16;4.20;99.90
6210;DHT22;3138;52.550;13.148;2024-02-28T11:41:43;4.10;99.90
6210;DHT22;3138;52.550;13.148;2024-02-28T11:44:12;4.10;99.90
6210;DHT22;3138;52.550;13.148;2024-02-28T11:46:43;4.10;99.90
6210;DHT22;3138;52.550;13.148;2024-02-28T11:49:10;3.90;99.90
6210;DHT22;3138;52.550;13.148;2024-02-28T11:51:40;3.90;99.90
6210;DHT22;3138;52.550;13.148;2024-02-28T11:54:07;4.10;99.90
6210;DHT22;3138;52.550;13.148;2024-02-28T11:56:34;4.10;99.90
6210;DHT22;3138;52.550;13.148;2024-02-28T11:59:01;4.20;99.90
6210;DHT22;3138;52.550;13.148;2024-02-28T12:01:36;4.30;99.90
6210;DHT22;3138;52.550;13.148;2024-02-28T12:04:04;4.20;99.90
6210;DHT22;3138;52.550;13.148;2024-02-28T12:06:32;4.30;99.90
6210;DHT22;3138;52.550;13.148;2024-02-28T12:09:00;4.30;99.90
6210;DHT22;3138;52.550;13.148;2024-02-28T12:11:27;4.40;99.90
6210;DHT22;3138;52.550;13.148;2024-02-28T12:13:55;4.60;99.90
6210;DHT22;3138;52.550;13.148;2024-02-28T12:16:24;4.40;99.90
6210;DHT22;3138;52.550;13.148;2024-02-28T12:18:51;4.40;99.90
6210;DHT22;3138;52.550;13.148;2024-02-28T12:21:18;4.50;99.90
6210;DHT22;3138;52.550;13.148;2024-02-28T12:23:46;4.60;99.90
6210;DHT22;3138;52.550;13.148;2024-02-28T12:26:16;4.80;99.90
6210;DHT22;3138;52.550;13.148;2024-02-28T12:28:43;4.60;99.90
6210;DHT22;3138;52.550;13.148;2024-02-28T12:31:10;4.50;99.90
6210;DHT22;3138;52.550;13.148;2024-02-28T12:33:37;4.60;99.90
6210;DHT22;3138;52.550;13.148;2024-02-28T12:36:04;4.80;99.90
6210;DHT22;3138;52.550;13.148;2024-02-28T12:38:32;5.00;99.90
6210;DHT22;3138;52.550;13.148;2024-02-28T12:40:58;5.10;99.90
6210;DHT22;3138;52.550;13.148;2024-02-28T12:43:27;5.00;99.90
6210;DHT22;3138;52.550;13.148;2024-02-28T12:45:54;4.90;99.90
6210;DHT22;3138;52.550;13.148;2024-02-28T12:48:21;4.70;97.10
6210;DHT22;3138;52.550;13.148;2024-02-28T12:50:48;5.10;99.90
6210;DHT22;3138;52.550;13.148;2024-02-28T12:53:15;5.00;97.90
6210;DHT22;3138;52.550;13.148;2024-02-28T12:55:42;4.90;95.10
6210;DHT22;3138;52.550;13.148;2024-02-28T12:58:09;5.30;99.30
6210;DHT22;3138;52.550;13.148;2024-02-28T13:00:37;5.50;99.50
6210;DHT22;3138;52.550;13.148;2024-02-28T13:03:04;5.50;97.20
6210;DHT22;3138;52.550;13.148;2024-02-28T13:05:32;5.20;92.30
6210;DHT22;3138;52.550;13.148;2024-02-28T13:07:58;5.20;93.10
6210;DHT22;3138;52.550;13.148;2024-02-28T13:10:25;5.20;94.10
6210;DHT22;3138;52.550;13.148;2024-02-28T13:12:53;5.30;93.20
6210;DHT22;3138;52.550;13.148;2024-02-28T13:15:19;5.30;92.20
6210;DHT22;3138;52.550;13.148;2024-02-28T13:17:48;5.60;94.10
6210;DHT22;3138;52.550;13.148;2024-02-28T13:20:15;5.70;90.10
6210;DHT22;3138;52.550;13.148;2024-02-28T13:22:42;5.40;90.10
6210;DHT22;3138;52.550;13.148;2024-02-28T13:25:09;5.60;87.20
6210;DHT22;3138;52.550;13.148;2024-02-28T13:27:36;5.90;90.00
6210;DHT22;3138;52.550;13.148;2024-02-28T13:30:04;6.20;88.20
6210;DHT22;3138;52.550;13.148;2024-02-28T13:32:31;6.20;81.00
6210;DHT22;3138;52.550;13.148;2024-02-28T13:35:00;5.80;78.70
6210;DHT22;3138;52.550;13.148;2024-02-28T13:37:26;6.20;83.20
6210;DHT22;3138;52.550;13.148;2024-02-28T13:39:53;6.20;76.50
6210;DHT22;3138;52.550;13.148;2024-02-28T13:42:21;5.90;76.10
6210;DHT22;3138;52.550;13.148;2024-02-28T13:44:50;5.60;73.10
6210;DHT22;3138;52.550;13.148;2024-02-28T13:47:16;5.70;75.50
6210;DHT22;3138;52.550;13.148;2024-02-28T13:49:43;5.70;72.60
6210;DHT22;3138;52.550;13.148;2024-02-28T13:52:11;5.70;75.00
6210;DHT22;3138;52.550;13.148;2024-02-28T13:54:38;5.50;72.70
6210;DHT22;3138;52.550;13.148;2024-02-28T13:57:05;5.70;75.50
6210;DHT22;3138;52.550;13.148;2024-02-28T13:59:32;5.70;75.10
6210;DHT22;3138;52.550;13.148;2024-02-28T14:01:59;5.60;70.80
6210;DHT22;3138;52.550;13.148;2024-02-28T14:04:26;5.50;68.40
6210;DHT22;3138;52.550;13.148;2024-02-28T14:06:53;5.50;68.10
6210;DHT22;3138;52.550;13.148;2024-02-28T14:09:22;5.50;66.70
6210;DHT22;3138;52.550;13.148;2024-02-28T14:11:48;5.50;67.20
6210;DHT22;3138;52.550;13.148;2024-02-28T14:14:16;5.50;69.90
6210;DHT22;3138;52.550;13.148;2024-02-28T14:16:43;5.40;71.80
6210;DHT22;3138;52.550;13.148;2024-02-28T14:19:09;5.10;67.10
6210;DHT22;3138;52.550;13.148;2024-02-28T14:21:35;5.10;66.50
6210;DHT22;3138;52.550;13.148;2024-02-28T14:24:02;5.00;72.50
6210;DHT22;3138;52.550;13.148;2024-02-28T14:26:31;5.10;71.00
6210;DHT22;3138;52.550;13.148;2024-02-28T14:28:58;5.20;71.70
6210;DHT22;3138;52.550;13.148;2024-02-28T14:31:25;5.30;69.70
6210;DHT22;3138;52.550;13.148;2024-02-28T14:33:52;5.30;65.40
6210;DHT22;3138;52.550;13.148;2024-02-28T14:36:20;5.30;66.60
6210;DHT22;3138;52.550;13.148;2024-02-28T14:38:47;5.20;66.40
6210;DHT22;3138;52.550;13.148;2024-02-28T14:41:14;5.20;67.30
6210;DHT22;3138;52.550;13.148;2024-02-28T14:43:42;5.10;66.80
6210;DHT22;3138;52.550;13.148;2024-02-28T14:46:09;5.10;66.30
6210;DHT22;3138;52.550;13.148;2024-02-28T14:48:36;5.20;71.00
6210;DHT22;3138;52.550;13.148;2024-02-28T14:51:04;5.10;69.10
6210;DHT22;3138;52.550;13.148;2024-02-28T14:53:32;5.00;72.50
6210;DHT22;3138;52.550;13.148;2024-02-28T14:55:58;5.20;72.90
6210;DHT22;3138;52.550;13.148;2024-02-28T14:58:25;5.20;70.40
6210;DHT22;3138;52.550;13.148;2024-02-28T15:00:53;5.20;72.90
6210;DHT22;3138;52.550;13.148;2024-02-28T15:03:24;5.20;69.50
6210;DHT22;3138;52.550;13.148;2024-02-28T15:05:51;5.10;69.90
6210;DHT22;3138;52.550;13.148;2024-02-28T15:08:17;5.10;70.20
6210;DHT22;3138;52.550;13.148;2024-02-28T15:10:44;5.10;70.90
6210;DHT22;3138;52.550;13.148;2024-02-28T15:13:11;5.00;70.20
6210;DHT22;3138;52.550;13.148;2024-02-28T15:15:38;4.90;72.90
6210;DHT22;3138;52.550;13.148;2024-02-28T15:18:06;5.00;72.20
6210;DHT22;3138;52.550;13.148;2024-02-28T15:20:34;5.00;72.50
6210;DHT22;3138;52.550;13.148;2024-02-28T15:23:01;5.10;73.90
6210;DHT22;3138;52.550;13.148;2024-02-28T15:25:29;5.00;69.80
6210;DHT22;3138;52.550;13.148;2024-02-28T15:27:55;5.00;69.10
6210;DHT22;3138;52.550;13.148;2024-02-28T15:30:22;4.80;69.50
6210;DHT22;3138;52.550;13.148;2024-02-28T15:32:50;4.90;72.20
6210;DHT22;3138;52.550;13.148;2024-02-28T15:35:19;4.90;73.20
6210;DHT22;3138;52.550;13.148;2024-02-28T15:37:46;4.90;72.50
6210;DHT22;3138;52.550;13.148;2024-02-28T15:40:13;4.80;68.00
6210;DHT22;3138;52.550;13.148;2024-02-28T15:42:42;4.80;70.10
6210;DHT22;3138;52.550;13.148;2024-02-28T15:45:09;4.80;70.80
6210;DHT22;3138;52.550;13.148;2024-02-28T15:47:36;4.70;70.60
6210;DHT22;3138;52.550;13.148;2024-02-28T15:50:03;4.70;72.50
6210;DHT22;3138;52.550;13.148;2024-02-28T15:52:32;4.60;75.10
6210;DHT22;3138;52.550;13.148;2024-02-28T15:54:58;4.50;77.20
6210;DHT22;3138;52.550;13.148;2024-02-28T15:57:25;4.50;78.30
6210;DHT22;3138;52.550;13.148;2024-02-28T15:59:52;4.50;79.60
6210;DHT22;3138;52.550;13.148;2024-02-28T16:02:21;4.40;83.00